createdAt,value
2022-12-28T00:00:39.118Z,6.13
2022-12-28T00:01:39.068Z,6.18
2022-12-28T00:02:39.134Z,6.25
2022-12-28T00:03:39.062Z,6.25
2022-12-28T00:04:39.074Z,6.35
2022-12-28T00:05:39.054Z,6.26
2022-12-28T00:06:39.035Z,6.26
2022-12-28T00:07:39.034Z,6.28
2022-12-28T00:08:39.075Z,6.40
2022-12-28T00:09:39.055Z,6.22
2022-12-28T00:11:08.691Z,6.40
2022-12-28T00:11:39.985Z,6.36
2022-12-28T00:12:39.016Z,6.25
2022-12-28T00:13:38.965Z,6.30
2022-12-28T00:14:39.050Z,6.30
2022-12-28T00:15:39.006Z,6.28
2022-12-28T00:16:39.015Z,6.28
2022-12-28T00:17:38.930Z,6.33
2022-12-28T00:18:39.942Z,6.29
2022-12-28T00:19:38.922Z,6.07
2022-12-28T00:20:38.968Z,6.19
2022-12-28T00:21:38.919Z,6.35
2022-12-28T00:22:38.905Z,6.46
2022-12-28T00:23:38.943Z,6.41
2022-12-28T00:24:38.925Z,6.54
2022-12-28T00:25:38.895Z,6.68
2022-12-28T00:26:39.902Z,6.50
2022-12-28T00:27:38.885Z,6.50
2022-12-28T00:28:38.901Z,6.61
2022-12-28T00:29:38.921Z,6.48
2022-12-28T00:30:38.929Z,6.50
2022-12-28T00:31:38.903Z,6.51
2022-12-28T00:32:38.853Z,6.59
2022-12-28T00:33:38.852Z,6.54
2022-12-28T00:34:38.837Z,6.51
2022-12-28T00:35:38.838Z,6.56
2022-12-28T00:37:09.378Z,6.62
2022-12-28T00:37:39.822Z,6.48
2022-12-28T00:38:38.826Z,6.50
2022-12-28T00:39:38.900Z,6.65
2022-12-28T00:40:38.811Z,6.59
2022-12-28T00:41:38.852Z,6.72
2022-12-28T00:42:38.804Z,6.81
2022-12-28T00:43:38.804Z,6.71
2022-12-28T00:44:38.881Z,6.71
2022-12-28T00:45:38.805Z,6.58
2022-12-28T00:46:38.792Z,6.69
2022-12-28T00:47:38.783Z,6.68
2022-12-28T00:48:38.762Z,6.68
2022-12-28T00:49:38.759Z,6.72
2022-12-28T00:50:38.762Z,6.79
2022-12-28T00:51:38.733Z,6.84
2022-12-28T00:52:38.749Z,6.86
2022-12-28T00:53:38.707Z,6.79
2022-12-28T00:54:38.712Z,6.69
2022-12-28T00:55:38.701Z,6.84
2022-12-28T00:56:38.694Z,6.81
2022-12-28T00:57:38.779Z,6.91
2022-12-28T00:58:38.710Z,6.81
2022-12-28T00:59:38.682Z,6.77
2022-12-28T01:00:38.722Z,6.77
2022-12-28T01:01:38.794Z,6.90
2022-12-28T01:02:38.708Z,6.91
2022-12-28T01:03:38.709Z,6.77
2022-12-28T01:04:38.715Z,6.73
2022-12-28T01:05:38.661Z,6.69
2022-12-28T01:06:38.648Z,6.86
2022-12-28T01:07:38.660Z,6.69
2022-12-28T01:08:38.639Z,6.80
2022-12-28T01:09:38.640Z,6.90
2022-12-28T01:10:38.669Z,6.86
2022-12-28T01:11:38.602Z,6.73
2022-12-28T01:12:38.661Z,6.90
2022-12-28T01:13:38.611Z,6.81
2022-12-28T01:14:38.689Z,6.94
2022-12-28T01:15:38.622Z,6.97
2022-12-28T01:16:39.311Z,6.90
2022-12-28T01:17:38.590Z,6.97
2022-12-28T01:18:38.592Z,6.86
2022-12-28T01:19:38.644Z,6.94
2022-12-28T01:20:38.601Z,6.94
2022-12-28T01:21:38.614Z,6.79
2022-12-28T01:22:38.559Z,6.84
2022-12-28T01:23:38.549Z,6.87
2022-12-28T01:24:38.542Z,6.80
2022-12-28T01:25:38.542Z,6.91
2022-12-28T01:26:38.564Z,6.86
2022-12-28T01:27:38.526Z,6.97
2022-12-28T01:28:38.510Z,6.95
2022-12-28T01:29:38.530Z,6.95
2022-12-28T01:30:38.809Z,6.91
2022-12-28T01:31:39.241Z,6.94
2022-12-28T01:32:38.497Z,6.97
2022-12-28T01:33:38.501Z,6.87
2022-12-28T01:34:38.495Z,6.87
2022-12-28T01:35:38.547Z,6.72
2022-12-28T01:36:38.528Z,6.83
2022-12-28T01:37:39.516Z,6.99
2022-12-28T01:38:38.509Z,6.97
2022-12-28T01:39:38.464Z,7.15
2022-12-28T01:40:38.495Z,7.05
2022-12-28T01:41:39.250Z,6.99
2022-12-28T01:42:39.245Z,6.80
2022-12-28T01:43:38.440Z,6.95
2022-12-28T01:44:38.516Z,7.01
2022-12-28T01:45:39.464Z,7.01
2022-12-28T01:46:39.447Z,7.02
2022-12-28T01:47:38.416Z,7.13
2022-12-28T01:48:38.450Z,6.99
2022-12-28T01:49:38.378Z,6.98
2022-12-28T01:50:38.457Z,7.07
2022-12-28T01:51:38.388Z,7.24
2022-12-28T01:52:38.385Z,7.05
2022-12-28T01:53:39.274Z,7.13
2022-12-28T01:54:38.366Z,7.09
2022-12-28T01:55:38.390Z,7.02
2022-12-28T01:56:38.385Z,7.07
2022-12-28T01:57:39.225Z,7.07
2022-12-28T01:58:38.365Z,7.13
2022-12-28T01:59:38.781Z,7.08
2022-12-28T02:00:38.410Z,7.12
2022-12-28T02:01:38.389Z,7.19
2022-12-28T02:02:39.503Z,6.98
2022-12-28T02:03:38.509Z,7.15
2022-12-28T02:04:38.353Z,7.02
2022-12-28T02:05:39.361Z,7.19
2022-12-28T02:06:38.451Z,7.02
2022-12-28T02:07:39.400Z,7.04
2022-12-28T02:08:38.495Z,7.09
2022-12-28T02:09:38.325Z,7.04
2022-12-28T02:10:44.457Z,7.16
2022-12-28T02:11:39.332Z,7.16
2022-12-28T02:12:39.422Z,7.13
2022-12-28T02:13:38.297Z,7.05
2022-12-28T02:14:38.281Z,7.17
2022-12-28T02:15:38.499Z,7.07
2022-12-28T02:16:38.432Z,6.84
2022-12-28T02:17:38.451Z,6.99
2022-12-28T02:18:38.356Z,7.02
2022-12-28T02:19:39.301Z,6.99
2022-12-28T02:20:38.292Z,6.94
2022-12-28T02:21:39.078Z,7.05
2022-12-28T02:22:39.632Z,7.13
2022-12-28T02:23:39.790Z,7.13
2022-12-28T02:24:38.740Z,7.22
2022-12-28T02:25:43.584Z,7.08
2022-12-28T02:26:42.066Z,7.05
2022-12-28T02:27:43.264Z,7.01
2022-12-28T02:28:42.986Z,6.99
2022-12-28T02:29:40.641Z,7.17
2022-12-28T02:30:39.452Z,7.22
2022-12-28T02:32:10.469Z,7.26
2022-12-28T02:32:47.066Z,7.05
2022-12-28T02:33:40.902Z,7.01
2022-12-28T02:34:41.173Z,7.13
2022-12-28T02:35:45.341Z,7.16
2022-12-28T02:36:42.058Z,7.12
2022-12-28T02:37:40.038Z,7.02
2022-12-28T02:38:41.051Z,6.99
2022-12-28T02:39:42.766Z,6.94
2022-12-28T02:40:41.128Z,6.95
2022-12-28T02:41:39.423Z,7.04
2022-12-28T02:42:41.546Z,7.01
2022-12-28T02:43:39.957Z,6.83
2022-12-28T02:44:39.664Z,7.04
2022-12-28T02:45:39.209Z,7.15
2022-12-28T02:46:39.888Z,7.09
2022-12-28T02:47:39.307Z,6.81
2022-12-28T02:48:39.026Z,6.83
2022-12-28T02:49:39.484Z,6.95
2022-12-28T02:50:42.343Z,6.90
2022-12-28T02:51:40.597Z,6.99
2022-12-28T02:52:40.159Z,6.99
2022-12-28T02:53:38.540Z,7.02
2022-12-28T02:54:39.085Z,7.16
2022-12-28T02:55:39.118Z,7.12
2022-12-28T02:56:40.627Z,7.01
2022-12-28T02:57:43.316Z,7.16
2022-12-28T02:58:44.084Z,7.26
2022-12-28T02:59:38.833Z,7.31
2022-12-28T03:00:39.987Z,7.31
2022-12-28T03:01:39.852Z,7.17
2022-12-28T03:02:41.437Z,7.16
2022-12-28T03:03:40.541Z,7.20
2022-12-28T03:04:40.081Z,7.37
2022-12-28T03:05:41.583Z,7.26
2022-12-28T03:06:39.217Z,7.32
2022-12-28T03:07:38.542Z,7.24
2022-12-28T03:08:42.623Z,7.22
2022-12-28T03:09:39.055Z,6.97
2022-12-28T03:10:41.734Z,7.02
2022-12-28T03:11:40.971Z,7.04
2022-12-28T03:12:38.963Z,7.05
2022-12-28T03:13:47.695Z,7.02
2022-12-28T03:14:39.744Z,6.98
2022-12-28T03:15:41.416Z,7.04
2022-12-28T03:16:40.657Z,7.17
2022-12-28T03:17:39.323Z,6.99
2022-12-28T03:18:40.603Z,7.17
2022-12-28T03:19:40.623Z,7.08
2022-12-28T03:20:41.614Z,7.04
2022-12-28T03:21:41.485Z,7.01
2022-12-28T03:22:43.121Z,7.13
2022-12-28T03:23:43.284Z,7.17
2022-12-28T03:24:39.898Z,7.17
2022-12-28T03:25:41.350Z,7.34
2022-12-28T03:26:40.643Z,7.15
2022-12-28T03:27:39.469Z,7.12
2022-12-28T03:28:40.332Z,7.12
2022-12-28T03:29:40.694Z,6.95
2022-12-28T03:30:41.092Z,6.90
2022-12-28T03:31:40.940Z,7.08
2022-12-28T03:32:39.204Z,7.05
2022-12-28T03:33:40.662Z,7.13
2022-12-28T03:34:39.429Z,7.07
2022-12-28T03:35:41.568Z,7.02
2022-12-28T03:36:39.301Z,7.09
2022-12-28T03:37:39.682Z,7.08
2022-12-28T03:38:39.259Z,7.04
2022-12-28T03:39:42.472Z,7.09
2022-12-28T03:40:44.739Z,7.29
2022-12-28T03:41:43.055Z,7.13
2022-12-28T03:42:43.722Z,7.24
2022-12-28T03:43:43.736Z,7.19
2022-12-28T03:44:41.346Z,7.29
2022-12-28T03:45:46.714Z,7.42
2022-12-28T03:46:39.129Z,7.38
2022-12-28T03:47:41.204Z,7.38
2022-12-28T03:48:39.089Z,7.26
2022-12-28T03:49:39.485Z,7.26
2022-12-28T03:50:45.860Z,7.17
2022-12-28T03:51:40.355Z,7.07
2022-12-28T03:52:39.636Z,7.15
2022-12-28T03:53:40.814Z,6.94
2022-12-28T03:54:40.901Z,7.02
2022-12-28T03:55:43.044Z,7.23
2022-12-28T03:56:41.587Z,7.16
2022-12-28T03:57:41.709Z,7.15
2022-12-28T03:58:42.072Z,7.09
2022-12-28T03:59:38.559Z,7.15
2022-12-28T04:00:40.059Z,7.13
2022-12-28T04:01:41.226Z,6.97
2022-12-28T04:02:42.031Z,7.01
2022-12-28T04:03:41.312Z,7.13
2022-12-28T04:04:39.839Z,7.16
2022-12-28T04:05:39.925Z,7.15
2022-12-28T04:06:40.157Z,7.13
2022-12-28T04:07:39.255Z,7.20
2022-12-28T04:08:41.060Z,7.12
2022-12-28T04:09:39.620Z,7.12
2022-12-28T04:10:42.273Z,7.22
2022-12-28T04:11:40.753Z,7.22
2022-12-28T04:12:40.864Z,7.17
2022-12-28T04:13:39.285Z,7.34
2022-12-28T04:14:40.670Z,7.31
2022-12-28T04:15:42.129Z,7.34
2022-12-28T04:16:38.021Z,7.29
2022-12-28T04:17:40.991Z,7.23
2022-12-28T04:18:37.930Z,7.26
2022-12-28T04:19:38.527Z,7.15
2022-12-28T04:20:42.224Z,7.26
2022-12-28T04:21:40.092Z,7.29
2022-12-28T04:22:42.470Z,7.37
2022-12-28T04:23:42.815Z,7.15
2022-12-28T04:24:41.043Z,7.16
2022-12-28T04:25:40.052Z,7.20
2022-12-28T04:26:40.853Z,7.07
2022-12-28T04:27:40.920Z,7.20
2022-12-28T04:28:41.560Z,7.13
2022-12-28T04:30:00.927Z,7.32
2022-12-28T04:30:38.335Z,7.17
2022-12-28T04:31:38.373Z,7.22
2022-12-28T04:32:39.396Z,7.19
2022-12-28T04:33:38.703Z,7.29
2022-12-28T04:34:43.182Z,7.24
2022-12-28T04:35:39.184Z,7.20
2022-12-28T04:36:40.470Z,7.19
2022-12-28T04:37:41.035Z,7.29
2022-12-28T04:38:42.294Z,7.31
2022-12-28T04:39:56.233Z,7.29
2022-12-28T04:40:40.520Z,7.19
2022-12-28T04:41:40.399Z,7.04
2022-12-28T04:42:40.074Z,6.98
2022-12-28T04:43:41.625Z,7.01
2022-12-28T04:44:39.662Z,7.09
2022-12-28T04:45:38.617Z,7.19
2022-12-28T04:46:39.449Z,7.13
2022-12-28T04:47:40.051Z,7.13
2022-12-28T04:48:43.306Z,7.12
2022-12-28T04:49:41.064Z,7.07
2022-12-28T04:50:37.926Z,7.01
2022-12-28T04:51:42.231Z,7.08
2022-12-28T04:52:39.714Z,7.13
2022-12-28T04:53:38.132Z,7.22
2022-12-28T04:54:38.871Z,7.16
2022-12-28T04:55:38.604Z,7.09
2022-12-28T04:56:40.080Z,7.09
2022-12-28T04:57:38.719Z,7.17
2022-12-28T04:58:43.218Z,7.12
2022-12-28T04:59:40.453Z,6.90
2022-12-28T05:00:38.723Z,7.02
2022-12-28T05:01:39.048Z,7.09
2022-12-28T05:02:39.091Z,7.12
2022-12-28T05:03:38.284Z,7.16
2022-12-28T05:04:39.347Z,7.16
2022-12-28T05:05:38.653Z,7.26
2022-12-28T05:06:38.339Z,7.32
2022-12-28T05:07:39.790Z,7.26
2022-12-28T05:08:40.231Z,7.13
2022-12-28T05:09:41.833Z,7.19
2022-12-28T05:10:41.068Z,7.23
2022-12-28T05:11:45.198Z,7.22
2022-12-28T05:12:39.136Z,7.05
2022-12-28T05:13:39.663Z,7.05
2022-12-28T05:14:38.773Z,7.16
2022-12-28T05:15:40.760Z,7.12
2022-12-28T05:16:40.778Z,7.20
2022-12-28T05:17:39.076Z,7.02
2022-12-28T05:18:38.566Z,7.13
2022-12-28T05:19:39.960Z,7.23
2022-12-28T05:20:38.966Z,7.23
2022-12-28T05:21:39.243Z,7.02
2022-12-28T05:22:41.019Z,7.01
2022-12-28T05:23:42.636Z,7.24
2022-12-28T05:24:40.458Z,7.22
2022-12-28T05:25:40.045Z,7.15
2022-12-28T05:26:42.013Z,7.13
2022-12-28T05:27:39.493Z,7.27
2022-12-28T05:28:38.975Z,7.29
2022-12-28T05:29:39.218Z,7.23
2022-12-28T05:30:39.838Z,7.20
2022-12-28T05:31:42.406Z,7.26
2022-12-28T05:32:40.178Z,7.26
2022-12-28T05:33:37.607Z,7.09
2022-12-28T05:34:38.618Z,7.19
2022-12-28T05:35:38.324Z,7.09
2022-12-28T05:36:40.710Z,7.08
2022-12-28T05:37:39.559Z,7.23
2022-12-28T05:38:43.146Z,7.23
2022-12-28T05:39:38.794Z,7.12
2022-12-28T05:40:40.302Z,7.29
2022-12-28T05:41:38.949Z,7.17
2022-12-28T05:42:38.377Z,7.13
2022-12-28T05:43:39.387Z,7.31
2022-12-28T05:44:38.505Z,7.17
2022-12-28T05:45:38.852Z,7.19
2022-12-28T05:46:38.347Z,7.26
2022-12-28T05:47:37.756Z,7.26
2022-12-28T05:48:39.399Z,7.35
2022-12-28T05:49:39.821Z,7.24
2022-12-28T05:50:40.721Z,7.27
2022-12-28T05:51:39.949Z,7.29
2022-12-28T05:52:38.820Z,7.29
2022-12-28T05:53:40.480Z,7.26
2022-12-28T05:54:39.335Z,7.35
2022-12-28T05:55:39.805Z,7.29
2022-12-28T05:56:39.428Z,7.35
2022-12-28T05:57:38.317Z,7.34
2022-12-28T05:58:38.193Z,7.37
2022-12-28T05:59:37.993Z,7.26
2022-12-28T06:00:40.049Z,7.32
2022-12-28T06:01:38.619Z,7.41
2022-12-28T06:02:37.436Z,7.49
2022-12-28T06:03:39.174Z,7.44
2022-12-28T06:04:37.306Z,7.37
2022-12-28T06:05:38.388Z,7.32
2022-12-28T06:06:39.518Z,7.38
2022-12-28T06:07:37.247Z,7.45
2022-12-28T06:08:40.577Z,7.49
2022-12-28T06:09:39.715Z,7.63
2022-12-28T06:10:39.590Z,7.66
2022-12-28T06:11:38.280Z,7.45
2022-12-28T06:12:38.500Z,7.49
2022-12-28T06:13:38.842Z,7.50
2022-12-28T06:14:39.408Z,7.52
2022-12-28T06:15:37.197Z,7.56
2022-12-28T06:16:38.435Z,7.62
2022-12-28T06:17:39.728Z,7.53
2022-12-28T06:18:40.294Z,7.58
2022-12-28T06:19:38.197Z,7.58
2022-12-28T06:20:39.207Z,7.52
2022-12-28T06:23:39.787Z,7.79
2022-12-28T06:24:39.364Z,7.74
2022-12-28T06:25:39.190Z,7.59
2022-12-28T06:26:41.640Z,7.72
2022-12-28T06:27:39.030Z,7.75
2022-12-28T06:28:38.948Z,7.74
2022-12-28T06:29:38.983Z,7.75
2022-12-28T06:30:38.960Z,7.74
2022-12-28T06:31:39.037Z,7.72
2022-12-28T06:32:38.963Z,7.87
2022-12-28T06:33:38.921Z,7.89
2022-12-28T06:34:38.939Z,7.78
2022-12-28T06:35:38.903Z,7.92
2022-12-28T06:36:38.898Z,7.81
2022-12-28T06:37:38.936Z,7.96
2022-12-28T06:38:38.909Z,7.90
2022-12-28T06:39:38.897Z,7.84
2022-12-28T06:41:11.610Z,7.87
2022-12-28T06:41:40.878Z,7.84
2022-12-28T06:42:38.906Z,7.93
2022-12-28T06:43:38.858Z,7.87
2022-12-28T06:44:44.309Z,7.92
2022-12-28T06:45:40.888Z,7.81
2022-12-28T06:46:38.888Z,7.92
2022-12-28T06:47:38.863Z,7.93
2022-12-28T06:48:38.866Z,7.96
2022-12-28T06:49:38.951Z,7.93
2022-12-28T06:50:40.332Z,7.94
2022-12-28T06:51:39.853Z,7.97
2022-12-28T06:52:38.845Z,8.00
2022-12-28T06:53:38.811Z,7.94
2022-12-28T06:54:38.853Z,7.96
2022-12-28T06:55:38.793Z,7.96
2022-12-28T06:56:38.828Z,8.15
2022-12-28T06:57:38.851Z,7.97
2022-12-28T06:58:38.871Z,8.11
2022-12-28T06:59:38.800Z,7.99
2022-12-28T07:00:38.798Z,8.00
2022-12-28T07:01:38.960Z,8.00
2022-12-28T07:02:38.917Z,7.90
2022-12-28T07:03:38.763Z,7.99
2022-12-28T07:04:38.791Z,7.97
2022-12-28T07:05:38.730Z,7.90
2022-12-28T07:06:38.778Z,7.99
2022-12-28T07:07:38.750Z,7.87
2022-12-28T07:08:38.736Z,7.96
2022-12-28T07:09:38.728Z,7.89
2022-12-28T07:10:38.709Z,7.90
2022-12-28T07:11:38.737Z,7.94
2022-12-28T07:12:38.708Z,7.89
2022-12-28T07:13:38.692Z,7.93
2022-12-28T07:14:38.691Z,7.89
2022-12-28T07:15:38.697Z,7.85
2022-12-28T07:17:24.412Z,7.97
2022-12-28T07:18:25.517Z,8.00
2022-12-28T07:19:25.521Z,7.90
2022-12-28T07:20:25.518Z,8.00
2022-12-28T07:21:25.507Z,7.97
2022-12-28T07:22:25.523Z,7.90
2022-12-28T07:23:25.512Z,7.93
2022-12-28T07:24:25.495Z,7.99
2022-12-28T07:25:29.288Z,8.10
2022-12-28T07:26:26.482Z,8.00
2022-12-28T07:27:25.472Z,8.03
2022-12-28T07:28:25.445Z,8.03
2022-12-28T07:29:25.472Z,7.96
2022-12-28T07:30:26.296Z,8.15
2022-12-28T07:31:25.442Z,8.04
2022-12-28T07:32:25.441Z,7.93
2022-12-28T07:33:25.456Z,7.85
2022-12-28T07:34:25.433Z,7.94
2022-12-28T07:35:25.444Z,7.96
2022-12-28T07:36:25.477Z,8.00
2022-12-28T07:37:25.436Z,7.92
2022-12-28T07:38:25.416Z,7.93
2022-12-28T07:39:25.414Z,7.90
2022-12-28T07:40:25.420Z,7.93
2022-12-28T07:41:25.387Z,7.96
2022-12-28T07:42:25.381Z,7.96
2022-12-28T07:43:25.368Z,7.96
2022-12-28T07:44:29.450Z,7.96
2022-12-28T07:45:26.373Z,7.90
2022-12-28T07:46:25.389Z,8.10
2022-12-28T07:47:25.369Z,8.22
2022-12-28T07:48:25.339Z,8.08
2022-12-28T07:49:25.342Z,8.08
2022-12-28T07:50:25.340Z,8.20
2022-12-28T07:51:25.339Z,8.22
2022-12-28T07:52:25.351Z,8.14
2022-12-28T07:53:25.320Z,8.17
2022-12-28T07:54:25.311Z,8.12
2022-12-28T07:55:25.317Z,8.33
2022-12-28T07:56:25.330Z,8.37
2022-12-28T07:57:25.322Z,8.08
2022-12-28T07:58:25.284Z,8.14
2022-12-28T07:59:30.777Z,8.02
2022-12-28T08:00:27.283Z,8.07
2022-12-28T08:01:25.391Z,8.08
2022-12-28T08:02:25.343Z,7.94
2022-12-28T08:03:25.289Z,8.08
2022-12-28T08:04:25.281Z,8.10
2022-12-28T08:05:25.247Z,7.99
2022-12-28T08:06:25.244Z,7.97
2022-12-28T08:07:25.220Z,8.14
2022-12-28T08:08:25.231Z,8.04
2022-12-28T08:09:25.225Z,8.14
2022-12-28T08:10:25.250Z,8.04
2022-12-28T08:11:25.232Z,8.11
2022-12-28T08:12:25.216Z,7.94
2022-12-28T08:13:25.184Z,8.07
2022-12-28T08:14:25.186Z,8.15
2022-12-28T08:15:25.217Z,8.21
2022-12-28T08:16:25.214Z,8.18
2022-12-28T08:17:25.171Z,8.30
2022-12-28T08:18:25.188Z,8.30
2022-12-28T08:19:25.150Z,8.25
2022-12-28T08:20:25.218Z,8.20
2022-12-28T08:21:25.139Z,8.37
2022-12-28T08:22:25.153Z,8.32
2022-12-28T08:23:25.146Z,8.37
2022-12-28T08:24:25.129Z,8.28
2022-12-28T08:25:25.130Z,8.29
2022-12-28T08:26:25.118Z,8.42
2022-12-28T08:27:25.120Z,8.17
2022-12-28T08:28:25.114Z,8.14
2022-12-28T08:29:25.102Z,8.28
2022-12-28T08:30:25.210Z,8.26
2022-12-28T08:31:25.126Z,8.30
2022-12-28T08:32:25.118Z,8.29
2022-12-28T08:33:25.071Z,8.30
2022-12-28T08:34:25.062Z,8.40
2022-12-28T08:35:26.058Z,8.26
2022-12-28T08:36:25.765Z,8.42
2022-12-28T08:37:25.069Z,8.42
2022-12-28T08:38:25.043Z,8.47
2022-12-28T08:39:25.063Z,8.47
2022-12-28T08:40:25.066Z,8.44
2022-12-28T08:41:25.020Z,8.37
2022-12-28T08:42:25.017Z,8.53
2022-12-28T08:43:25.021Z,8.53
2022-12-28T08:44:25.008Z,8.53
2022-12-28T08:45:25.027Z,8.63
2022-12-28T08:46:25.052Z,8.55
2022-12-28T08:47:24.996Z,8.51
2022-12-28T08:48:24.981Z,8.53
2022-12-28T08:49:25.778Z,8.54
2022-12-28T08:50:31.204Z,8.39
2022-12-28T08:51:26.967Z,8.50
2022-12-28T08:52:25.016Z,8.47
2022-12-28T08:53:24.978Z,8.53
2022-12-28T08:54:24.964Z,8.51
2022-12-28T08:55:24.928Z,8.63
2022-12-28T08:56:24.955Z,8.65
2022-12-28T08:57:24.914Z,8.58
2022-12-28T08:58:26.755Z,8.60
2022-12-28T08:59:24.918Z,8.58
2022-12-28T09:00:24.911Z,8.53
2022-12-28T09:01:25.032Z,8.55
2022-12-28T09:02:25.112Z,8.51
2022-12-28T09:03:24.932Z,8.68
2022-12-28T09:04:24.880Z,8.51
2022-12-28T09:05:24.867Z,8.60
2022-12-28T09:06:24.871Z,8.57
2022-12-28T09:07:24.863Z,8.75
2022-12-28T09:08:24.886Z,8.68
2022-12-28T09:09:24.860Z,8.62
2022-12-28T09:10:24.840Z,8.55
2022-12-28T09:11:24.856Z,8.60
2022-12-28T09:12:24.832Z,8.76
2022-12-28T09:13:24.841Z,8.78
2022-12-28T09:14:24.958Z,8.72
2022-12-28T09:15:25.773Z,8.84
2022-12-28T09:16:24.829Z,8.78
2022-12-28T09:17:24.838Z,8.79
2022-12-28T09:18:24.794Z,8.78
2022-12-28T09:19:24.797Z,8.87
2022-12-28T09:20:24.841Z,8.91
2022-12-28T09:21:24.782Z,8.81
2022-12-28T09:22:24.788Z,8.75
2022-12-28T09:23:24.756Z,8.93
2022-12-28T09:24:24.774Z,8.83
2022-12-28T09:25:24.769Z,8.76
2022-12-28T09:26:24.748Z,8.65
2022-12-28T09:27:24.743Z,8.78
2022-12-28T09:28:24.724Z,8.79
2022-12-28T09:29:24.801Z,8.79
2022-12-28T09:30:24.736Z,8.76
2022-12-28T09:31:24.796Z,8.83
2022-12-28T09:32:24.704Z,8.84
2022-12-28T09:33:24.734Z,8.79
2022-12-28T09:34:40.154Z,8.79
2022-12-28T09:35:26.675Z,8.87
2022-12-28T09:36:24.681Z,8.78
2022-12-28T09:37:24.707Z,8.75
2022-12-28T09:38:24.663Z,8.88
2022-12-28T09:39:25.159Z,8.76
2022-12-28T09:40:24.666Z,8.90
2022-12-28T09:41:24.661Z,8.81
2022-12-28T09:42:24.652Z,8.86
2022-12-28T09:43:24.651Z,8.87
2022-12-28T09:44:24.755Z,8.78
2022-12-28T09:45:24.632Z,8.87
2022-12-28T09:46:24.670Z,8.86
2022-12-28T09:47:24.672Z,8.78
2022-12-28T09:48:24.635Z,8.78
2022-12-28T09:49:24.735Z,8.86
2022-12-28T09:50:24.618Z,9.04
2022-12-28T09:51:24.614Z,9.04
2022-12-28T09:52:24.624Z,8.87
2022-12-28T09:53:24.620Z,9.09
2022-12-28T09:54:24.602Z,9.06
2022-12-28T09:55:24.586Z,9.01
2022-12-28T09:56:24.616Z,9.09
2022-12-28T09:57:24.592Z,8.99
2022-12-28T09:58:25.247Z,9.06
2022-12-28T09:59:24.555Z,9.13
2022-12-28T10:00:24.544Z,9.15
2022-12-28T10:01:24.673Z,9.13
2022-12-28T10:02:24.716Z,9.09
2022-12-28T10:03:24.648Z,9.06
2022-12-28T10:04:24.540Z,9.06
2022-12-28T10:05:24.518Z,9.21
2022-12-28T10:06:24.508Z,8.97
2022-12-28T10:07:24.501Z,9.13
2022-12-28T10:08:24.531Z,8.99
2022-12-28T10:09:24.507Z,9.04
2022-12-28T10:10:24.489Z,9.04
2022-12-28T10:11:24.521Z,9.12
2022-12-28T10:12:24.530Z,9.10
2022-12-28T10:14:26.546Z,9.10
2022-12-28T10:15:24.474Z,9.18
2022-12-28T10:16:25.284Z,9.18
2022-12-28T10:17:24.534Z,9.13
2022-12-28T10:18:24.446Z,9.20
2022-12-28T10:19:24.454Z,9.25
2022-12-28T10:20:24.427Z,9.25
2022-12-28T10:21:32.020Z,9.16
2022-12-28T10:22:26.412Z,9.20
2022-12-28T10:23:24.443Z,9.24
2022-12-28T10:24:32.659Z,9.20
2022-12-28T10:25:26.428Z,9.40
2022-12-28T10:26:24.410Z,9.40
2022-12-28T10:27:24.399Z,9.60
2022-12-28T10:28:24.385Z,9.57
2022-12-28T10:29:24.386Z,9.63
2022-12-28T10:30:24.417Z,9.35
2022-12-28T10:31:24.415Z,9.35
2022-12-28T10:32:24.349Z,9.34
2022-12-28T10:33:24.357Z,9.61
2022-12-28T10:34:24.332Z,9.42
2022-12-28T10:35:24.372Z,9.40
2022-12-28T10:36:29.744Z,9.39
2022-12-28T10:37:26.459Z,9.38
2022-12-28T10:38:24.366Z,9.49
2022-12-28T10:39:24.316Z,9.70
2022-12-28T10:40:24.356Z,9.50
2022-12-28T10:41:25.199Z,9.52
2022-12-28T10:42:24.296Z,9.52
2022-12-28T10:43:24.314Z,9.49
2022-12-28T10:45:26.320Z,9.76
2022-12-28T10:46:24.354Z,9.66
2022-12-28T10:47:24.277Z,9.73
2022-12-28T10:48:24.244Z,9.79
2022-12-28T10:49:25.316Z,9.81
2022-12-28T10:50:37.300Z,9.67
2022-12-28T10:51:26.259Z,9.75
2022-12-28T10:52:24.245Z,9.67
2022-12-28T10:53:24.279Z,9.61
2022-12-28T10:54:27.947Z,9.78
2022-12-28T10:55:25.261Z,9.79
2022-12-28T10:56:24.225Z,9.81
2022-12-28T10:57:24.241Z,9.85
2022-12-28T10:58:33.831Z,9.83
2022-12-28T10:59:26.199Z,9.68
2022-12-28T11:00:24.230Z,9.67
2022-12-28T11:01:24.279Z,9.70
2022-12-28T11:02:24.454Z,9.75
2022-12-28T11:03:21.237Z,9.53
2022-12-28T11:03:24.237Z,9.73
2022-12-28T11:04:24.177Z,9.73
2022-12-28T11:05:24.183Z,9.76
2022-12-28T11:06:27.099Z,9.71
2022-12-28T11:07:25.187Z,9.61
2022-12-28T11:08:24.179Z,9.64
2022-12-28T11:09:24.181Z,9.82
2022-12-28T11:10:24.225Z,9.71
2022-12-28T11:11:24.111Z,9.76
2022-12-28T11:12:24.146Z,9.76
2022-12-28T11:13:24.104Z,9.85
2022-12-28T11:14:24.112Z,9.85
2022-12-28T11:15:24.109Z,9.99
2022-12-28T11:16:24.147Z,10.06
2022-12-28T11:17:24.097Z,10.00
2022-12-28T11:18:24.125Z,9.88
2022-12-28T11:19:24.122Z,9.97
2022-12-28T11:20:24.078Z,9.89
2022-12-28T11:21:24.095Z,9.89
2022-12-28T11:22:24.055Z,9.76
2022-12-28T11:23:24.071Z,9.79
2022-12-28T11:24:24.060Z,9.78
2022-12-28T11:25:24.043Z,9.75
2022-12-28T11:26:24.046Z,9.85
2022-12-28T11:27:24.016Z,9.88
2022-12-28T11:28:24.026Z,9.79
2022-12-28T11:29:24.031Z,9.94
2022-12-28T11:30:24.034Z,9.93
2022-12-28T11:31:24.074Z,9.85
2022-12-28T11:32:24.000Z,9.97
2022-12-28T11:33:24.006Z,9.83
2022-12-28T11:34:24.795Z,9.68
2022-12-28T11:35:24.003Z,9.75
2022-12-28T11:36:23.976Z,9.88
2022-12-28T11:37:23.973Z,9.89
2022-12-28T11:38:23.964Z,9.96
2022-12-28T11:39:23.959Z,10.07
2022-12-28T11:40:23.955Z,10.03
2022-12-28T11:41:26.443Z,10.18
2022-12-28T11:42:41.442Z,9.96
2022-12-28T11:43:25.913Z,10.00
2022-12-28T11:44:23.922Z,9.99
2022-12-28T11:45:23.994Z,10.18
2022-12-28T11:46:23.908Z,9.99
2022-12-28T11:47:28.248Z,9.85
2022-12-28T11:48:24.892Z,9.94
2022-12-28T11:49:23.908Z,10.03
2022-12-28T11:50:23.873Z,9.89
2022-12-28T11:51:23.862Z,9.94
2022-12-28T11:52:23.889Z,10.12
2022-12-28T11:53:23.865Z,10.22
2022-12-28T11:54:23.858Z,10.09
2022-12-28T11:55:23.853Z,10.00
2022-12-28T11:56:23.830Z,9.99
2022-12-28T11:57:23.844Z,9.97
2022-12-28T11:58:23.833Z,10.14
2022-12-28T11:59:23.836Z,10.25
2022-12-28T12:00:24.028Z,10.15
2022-12-28T12:01:23.838Z,10.21
2022-12-28T12:02:23.875Z,10.12
2022-12-28T12:03:23.847Z,10.07
2022-12-28T12:04:23.805Z,10.19
2022-12-28T12:05:23.778Z,10.15
2022-12-28T12:06:31.237Z,10.18
2022-12-28T12:07:31.148Z,10.17
2022-12-28T12:08:25.760Z,10.14
2022-12-28T12:09:23.768Z,10.17
2022-12-28T12:10:23.763Z,10.10
2022-12-28T12:11:23.770Z,9.99
2022-12-28T12:12:23.769Z,10.06
2022-12-28T12:13:23.755Z,10.22
2022-12-28T12:14:23.725Z,10.09
2022-12-28T12:15:23.715Z,10.12
2022-12-28T12:16:23.761Z,9.89
2022-12-28T12:17:23.708Z,10.18
2022-12-28T12:18:23.707Z,10.21
2022-12-28T12:19:23.693Z,10.24
2022-12-28T12:20:23.705Z,10.19
2022-12-28T12:21:24.759Z,10.12
2022-12-28T12:22:23.715Z,10.19
2022-12-28T12:23:23.660Z,10.18
2022-12-28T12:24:23.664Z,10.25
2022-12-28T12:25:23.700Z,10.30
2022-12-28T12:26:23.672Z,10.36
2022-12-28T12:27:23.647Z,10.44
2022-12-28T12:28:23.655Z,10.44
2022-12-28T12:29:23.705Z,10.43
2022-12-28T12:30:23.622Z,10.33
2022-12-28T12:31:23.690Z,10.40
2022-12-28T12:32:23.614Z,10.58
2022-12-28T12:33:23.667Z,10.56
2022-12-28T12:34:23.594Z,10.42
2022-12-28T12:35:23.598Z,10.58
2022-12-28T12:36:23.575Z,10.47
2022-12-28T12:37:23.787Z,10.52
2022-12-28T12:38:23.576Z,10.40
2022-12-28T12:39:23.571Z,10.42
2022-12-28T12:40:23.552Z,10.58
2022-12-28T12:41:23.542Z,10.58
2022-12-28T12:42:23.537Z,10.53
2022-12-28T12:43:23.571Z,10.51
2022-12-28T12:44:23.526Z,10.53
2022-12-28T12:45:23.554Z,10.58
2022-12-28T12:46:23.562Z,10.56
2022-12-28T12:47:23.516Z,10.58
2022-12-28T12:48:23.520Z,10.78
2022-12-28T12:49:23.528Z,10.80
2022-12-28T12:50:23.475Z,10.81
2022-12-28T12:51:23.481Z,10.86
2022-12-28T12:52:23.487Z,10.71
2022-12-28T12:53:23.482Z,10.78
2022-12-28T12:54:23.470Z,10.99
2022-12-28T12:55:23.463Z,11.03
2022-12-28T12:56:23.457Z,10.96
2022-12-28T12:57:23.416Z,11.01
2022-12-28T12:58:23.438Z,10.92
2022-12-28T12:59:23.423Z,10.91
2022-12-28T13:00:23.443Z,10.94
2022-12-28T13:01:23.488Z,10.84
2022-12-28T13:02:23.498Z,10.95
2022-12-28T13:03:23.473Z,11.09
2022-12-28T13:04:23.388Z,11.20
2022-12-28T13:05:23.400Z,11.13
2022-12-28T13:06:23.377Z,11.01
2022-12-28T13:07:23.389Z,10.96
2022-12-28T13:08:23.371Z,11.10
2022-12-28T13:09:23.358Z,11.03
2022-12-28T13:10:23.386Z,10.95
2022-12-28T13:11:23.355Z,10.98
2022-12-28T13:12:23.347Z,10.88
2022-12-28T13:13:23.344Z,10.91
2022-12-28T13:14:23.324Z,10.81
2022-12-28T13:15:23.321Z,10.77
2022-12-28T13:16:23.394Z,10.88
2022-12-28T13:17:23.309Z,11.07
2022-12-28T13:19:25.350Z,10.95
2022-12-28T13:20:23.311Z,10.88